createdAt,value
2018-04-10T00:00:41.858Z,0
2018-04-10T00:01:41.893Z,0
2018-04-10T00:02:41.928Z,0
2018-04-10T00:03:41.964Z,0
2018-04-10T00:04:42.001Z,0
2018-04-10T00:05:42.039Z,0
2018-04-10T00:06:42.074Z,0
2018-04-10T00:07:42.406Z,0
2018-04-10T00:08:42.147Z,0
2018-04-10T00:09:42.188Z,0
2018-04-10T00:10:42.218Z,0
2018-04-10T00:11:42.255Z,0
2018-04-10T00:12:42.304Z,0
2018-04-10T00:13:42.329Z,0
2018-04-10T00:14:42.363Z,0
2018-04-10T00:15:42.400Z,0
2018-04-10T00:16:42.438Z,0
2018-04-10T00:17:42.473Z,0
2018-04-10T00:18:42.505Z,0
2018-04-10T00:19:42.800Z,0
2018-04-10T00:20:42.586Z,0
2018-04-10T00:21:42.614Z,0
2018-04-10T00:22:42.651Z,0
2018-04-10T00:23:42.689Z,0
2018-04-10T00:24:42.990Z,0
2018-04-10T00:25:42.759Z,0
2018-04-10T00:26:42.799Z,0
2018-04-10T00:27:43.090Z,0
2018-04-10T00:28:42.870Z,0
2018-04-10T00:29:42.903Z,0
2018-04-10T00:30:42.939Z,0
2018-04-10T00:31:42.975Z,0
2018-04-10T00:32:43.278Z,0
2018-04-10T00:33:43.048Z,0
2018-04-10T00:34:43.081Z,0
2018-04-10T00:35:43.118Z,0
2018-04-10T00:36:43.419Z,0
2018-04-10T00:37:43.192Z,0
2018-04-10T00:38:43.228Z,0
2018-04-10T00:39:43.267Z,0
2018-04-10T00:40:43.295Z,0
2018-04-10T00:41:43.337Z,0
2018-04-10T00:42:43.371Z,0
2018-04-10T00:43:43.405Z,0
2018-04-10T00:44:43.441Z,0
2018-04-10T00:45:43.478Z,0
2018-04-10T00:46:43.515Z,0
2018-04-10T00:47:43.552Z,0
2018-04-10T00:48:43.586Z,0
2018-04-10T00:49:43.620Z,0
2018-04-10T00:50:43.657Z,0
2018-04-10T00:51:43.691Z,0
2018-04-10T00:52:43.987Z,0
2018-04-10T00:53:43.765Z,0
2018-04-10T00:54:44.062Z,0
2018-04-10T00:55:43.830Z,0
2018-04-10T00:56:43.870Z,0
2018-04-10T00:57:43.906Z,0
2018-04-10T00:58:43.950Z,0
2018-04-10T00:59:43.975Z,0
2018-04-10T01:00:44.273Z,0
2018-04-10T01:01:44.048Z,0
2018-04-10T01:02:44.088Z,0
2018-04-10T01:03:44.120Z,0
2018-04-10T01:04:44.157Z,0
2018-04-10T01:05:44.189Z,0
2018-04-10T01:06:44.508Z,0
2018-04-10T01:07:44.268Z,0
2018-04-10T01:08:44.299Z,0
2018-04-10T01:09:44.338Z,0
2018-04-10T01:10:44.631Z,0
2018-04-10T01:11:44.408Z,0
2018-04-10T01:12:44.444Z,0
2018-04-10T01:13:44.478Z,0
2018-04-10T01:14:44.513Z,0
2018-04-10T01:15:44.546Z,0
2018-04-10T01:16:44.584Z,0
2018-04-10T01:17:44.885Z,0
2018-04-10T01:18:44.653Z,0
2018-04-10T01:19:44.690Z,0
2018-04-10T01:20:44.728Z,0
2018-04-10T01:21:44.764Z,0
2018-04-10T01:22:45.369Z,0
2018-04-10T01:23:45.103Z,0
2018-04-10T01:24:44.877Z,0
2018-04-10T01:25:44.908Z,0
2018-04-10T01:26:44.940Z,0
2018-04-10T01:27:44.974Z,0
2018-04-10T01:28:45.009Z,0
2018-04-10T01:29:45.047Z,0
2018-04-10T01:30:45.083Z,0
2018-04-10T01:31:45.119Z,0
2018-04-10T01:32:45.157Z,0
2018-04-10T01:33:45.186Z,0
2018-04-10T01:34:45.227Z,0
2018-04-10T01:35:45.259Z,0
2018-04-10T01:36:45.302Z,0
2018-04-10T01:37:45.328Z,0
2018-04-10T01:38:45.367Z,0
2018-04-10T01:39:45.404Z,0
2018-04-10T01:40:45.439Z,0
2018-04-10T01:41:45.476Z,0
2018-04-10T01:42:45.557Z,0
2018-04-10T01:43:45.543Z,0
2018-04-10T01:44:45.579Z,0
2018-04-10T01:45:45.623Z,0
2018-04-10T01:46:45.650Z,0
2018-04-10T01:47:45.688Z,0
2018-04-10T01:48:45.725Z,0
2018-04-10T01:49:45.761Z,0
2018-04-10T01:50:45.794Z,0
2018-04-10T01:51:45.833Z,0
2018-04-10T01:52:45.869Z,0
2018-04-10T01:53:45.898Z,0
2018-04-10T01:54:45.933Z,0
2018-04-10T01:55:45.970Z,0
2018-04-10T01:56:46.004Z,0
2018-04-10T01:57:46.039Z,0
2018-04-10T01:58:46.078Z,0
2018-04-10T01:59:46.112Z,0
2018-04-10T02:00:46.150Z,0
2018-04-10T02:01:46.702Z,0
2018-04-10T02:02:46.215Z,0
2018-04-10T02:03:46.517Z,0
2018-04-10T02:04:46.292Z,0
2018-04-10T02:05:46.321Z,0
2018-04-10T02:06:46.621Z,0
2018-04-10T02:07:46.405Z,0
2018-04-10T02:08:46.691Z,0
2018-04-10T02:09:46.461Z,0
2018-04-10T02:10:46.496Z,0
2018-04-10T02:11:46.530Z,0
2018-04-10T02:12:46.565Z,0
2018-04-10T02:13:46.601Z,0
2018-04-10T02:14:46.898Z,0
2018-04-10T02:15:46.931Z,0
2018-04-10T02:16:46.708Z,0
2018-04-10T02:17:46.744Z,0
2018-04-10T02:18:46.776Z,0
2018-04-10T02:19:46.810Z,0
2018-04-10T02:20:46.848Z,0
2018-04-10T02:21:46.882Z,0
2018-04-10T02:22:46.917Z,0
2018-04-10T02:23:46.952Z,0
2018-04-10T02:24:46.988Z,0
2018-04-10T02:25:47.023Z,0
2018-04-10T02:26:47.067Z,0
2018-04-10T02:27:47.099Z,0
2018-04-10T02:28:47.129Z,0
2018-04-10T02:29:47.163Z,0
2018-04-10T02:30:47.459Z,0
2018-04-10T02:31:47.233Z,0
2018-04-10T02:32:47.272Z,0
2018-04-10T02:33:47.306Z,0
2018-04-10T02:34:47.338Z,0
2018-04-10T02:35:47.379Z,0
2018-04-10T02:36:47.668Z,0
2018-04-10T02:37:47.448Z,0
2018-04-10T02:38:47.483Z,0
2018-04-10T02:39:47.517Z,0
2018-04-10T02:40:47.552Z,0
2018-04-10T02:41:47.842Z,0
2018-04-10T02:42:47.879Z,0
2018-04-10T02:43:47.657Z,0
2018-04-10T02:44:47.688Z,0
2018-04-10T02:45:47.990Z,0
2018-04-10T02:46:47.759Z,0
2018-04-10T02:47:48.052Z,0
2018-04-10T02:48:48.362Z,0
2018-04-10T02:49:47.866Z,0
2018-04-10T02:50:47.903Z,0
2018-04-10T02:51:47.931Z,0
2018-04-10T02:52:47.968Z,0
2018-04-10T02:53:47.997Z,0
2018-04-10T02:54:48.035Z,0
2018-04-10T02:55:48.071Z,0
2018-04-10T02:56:48.105Z,0
2018-04-10T02:57:48.663Z,0
2018-04-10T02:58:48.177Z,0
2018-04-10T02:59:48.210Z,0
2018-04-10T03:00:48.246Z,0
2018-04-10T03:01:48.277Z,0
2018-04-10T03:02:48.316Z,0
2018-04-10T03:03:48.604Z,0
2018-04-10T03:04:48.381Z,0
2018-04-10T03:05:48.934Z,0
2018-04-10T03:06:48.451Z,0
2018-04-10T03:07:48.484Z,0
2018-04-10T03:08:48.521Z,0
2018-04-10T03:09:48.555Z,0
2018-04-10T03:10:48.591Z,0
2018-04-10T03:11:48.974Z,0
2018-04-10T03:12:48.923Z,0
2018-04-10T03:13:48.696Z,0
2018-04-10T03:14:48.727Z,0
2018-04-10T03:15:48.764Z,0
2018-04-10T03:16:48.799Z,0
2018-04-10T03:17:48.831Z,0
2018-04-10T03:18:48.863Z,0
2018-04-10T03:19:48.903Z,0
2018-04-10T03:20:49.627Z,0
2018-04-10T03:21:48.971Z,0
2018-04-10T03:22:49.005Z,0
2018-04-10T03:23:49.041Z,0
2018-04-10T03:24:49.075Z,0
2018-04-10T03:25:49.112Z,0
2018-04-10T03:26:49.146Z,0
2018-04-10T03:27:49.178Z,0
2018-04-10T03:28:49.214Z,0
2018-04-10T03:29:49.248Z,0
2018-04-10T03:30:49.279Z,0
2018-04-10T03:31:49.316Z,0
2018-04-10T03:32:49.349Z,0
2018-04-10T03:33:49.386Z,0
2018-04-10T03:34:49.687Z,0
2018-04-10T03:35:49.717Z,0
2018-04-10T03:36:49.759Z,0
2018-04-10T03:37:49.523Z,0
2018-04-10T03:38:49.558Z,0
2018-04-10T03:39:49.596Z,0
2018-04-10T03:40:49.624Z,0
2018-04-10T03:41:49.665Z,0
2018-04-10T03:42:49.703Z,0
2018-04-10T03:43:51.596Z,0
2018-04-10T03:44:51.956Z,0
2018-04-10T03:45:50.113Z,0
2018-04-10T03:46:49.833Z,0
2018-04-10T03:47:49.893Z,0
2018-04-10T03:48:49.901Z,0
2018-04-10T03:49:49.935Z,0
2018-04-10T03:50:49.968Z,0
2018-04-10T03:51:50.005Z,0
2018-04-10T03:52:50.037Z,0
2018-04-10T03:53:50.070Z,0
2018-04-10T03:54:50.109Z,0
2018-04-10T03:55:50.455Z,0
2018-04-10T03:56:50.176Z,0
2018-04-10T03:57:50.209Z,0
2018-04-10T03:58:50.247Z,0
2018-04-10T03:59:50.280Z,0
2018-04-10T04:00:50.579Z,0
2018-04-10T04:01:50.347Z,0
2018-04-10T04:02:50.382Z,0
2018-04-10T04:03:50.417Z,0
2018-04-10T04:04:50.449Z,0
2018-04-10T04:05:50.483Z,0
2018-04-10T04:06:50.518Z,0
2018-04-10T04:07:50.552Z,0
2018-04-10T04:08:50.849Z,0
2018-04-10T04:09:50.632Z,0
2018-04-10T04:10:50.655Z,0
2018-04-10T04:11:50.691Z,0
2018-04-10T04:12:50.724Z,0
2018-04-10T04:13:51.021Z,0
2018-04-10T04:14:50.799Z,0
2018-04-10T04:15:50.832Z,0
2018-04-10T04:16:50.862Z,0
2018-04-10T04:17:50.894Z,0
2018-04-10T04:18:50.926Z,5
2018-04-10T04:19:51.271Z,5
2018-04-10T04:20:50.995Z,5
2018-04-10T04:21:51.030Z,5
2018-04-10T04:22:51.068Z,5
2018-04-10T04:23:51.103Z,5
2018-04-10T04:24:51.135Z,5
2018-04-10T04:25:51.168Z,10
2018-04-10T04:26:51.205Z,10
2018-04-10T04:27:51.240Z,10
2018-04-10T04:28:51.538Z,10
2018-04-10T04:29:51.307Z,10
2018-04-10T04:30:51.344Z,15
2018-04-10T04:31:51.383Z,15
2018-04-10T04:32:51.410Z,15
2018-04-10T04:33:51.455Z,15
2018-04-10T04:34:51.735Z,20
2018-04-10T04:35:51.517Z,20
2018-04-10T04:36:51.553Z,20
2018-04-10T04:37:51.579Z,20
2018-04-10T04:38:51.612Z,25
2018-04-10T04:39:51.651Z,25
2018-04-10T04:40:51.683Z,25
2018-04-10T04:41:51.977Z,30
2018-04-10T04:42:52.011Z,30
2018-04-10T04:43:51.792Z,30
2018-04-10T04:44:51.822Z,35
2018-04-10T04:45:51.860Z,35
2018-04-10T04:46:52.106Z,35
2018-04-10T04:47:51.921Z,35
2018-04-10T04:48:51.958Z,40
2018-04-10T04:49:51.993Z,40
2018-04-10T04:50:52.292Z,40
2018-04-10T04:51:52.062Z,40
2018-04-10T04:52:52.095Z,45
2018-04-10T04:53:52.126Z,45
2018-04-10T04:54:52.204Z,45
2018-04-10T04:55:52.454Z,50
2018-04-10T04:56:52.233Z,50
2018-04-10T04:57:52.268Z,50
2018-04-10T04:58:52.302Z,55
2018-04-10T04:59:52.340Z,55
2018-04-10T05:00:52.411Z,55
2018-04-10T05:01:52.410Z,60
2018-04-10T05:02:52.441Z,60
2018-04-10T05:03:52.479Z,60
2018-04-10T05:04:52.510Z,65
2018-04-10T05:05:52.547Z,65
2018-04-10T05:06:52.575Z,70
2018-04-10T05:07:52.613Z,70
2018-04-10T05:08:52.655Z,75
2018-04-10T05:09:52.683Z,75
2018-04-10T05:10:52.715Z,75
2018-04-10T05:11:52.754Z,80
2018-04-10T05:12:52.787Z,80
2018-04-10T05:13:52.821Z,85
2018-04-10T05:14:52.857Z,85
2018-04-10T05:15:52.889Z,90
2018-04-10T05:16:52.990Z,90
2018-04-10T05:17:52.961Z,90
2018-04-10T05:18:52.996Z,105
2018-04-10T05:19:53.026Z,110
2018-04-10T05:20:53.066Z,105
2018-04-10T05:21:53.356Z,100
2018-04-10T05:22:53.137Z,100
2018-04-10T05:23:53.178Z,100
2018-04-10T05:24:53.224Z,100
2018-04-10T05:25:53.239Z,105
2018-04-10T05:26:53.279Z,105
2018-04-10T05:27:53.310Z,105
2018-04-10T05:28:53.347Z,110
2018-04-10T05:29:53.458Z,110
2018-04-10T05:30:53.413Z,115
2018-04-10T05:31:53.454Z,115
2018-04-10T05:32:53.598Z,120
2018-04-10T05:33:53.783Z,125
2018-04-10T05:34:53.557Z,125
2018-04-10T05:35:53.591Z,130
2018-04-10T05:36:53.666Z,135
2018-04-10T05:37:53.922Z,140
2018-04-10T05:38:53.701Z,160
2018-04-10T05:39:53.730Z,220
2018-04-10T05:40:53.776Z,285
2018-04-10T05:41:53.807Z,320
2018-04-10T05:42:53.845Z,320
2018-04-10T05:43:53.877Z,325
2018-04-10T05:44:53.910Z,330
2018-04-10T05:45:53.948Z,340
2018-04-10T05:46:53.989Z,340
2018-04-10T05:47:54.025Z,355
2018-04-10T05:48:54.060Z,360
2018-04-10T05:49:54.096Z,370
2018-04-10T05:50:54.649Z,380
2018-04-10T05:51:54.596Z,385
2018-04-10T05:52:54.207Z,390
2018-04-10T05:53:54.248Z,395
2018-04-10T05:54:54.280Z,400
2018-04-10T05:55:54.323Z,405
2018-04-10T05:56:54.391Z,415
2018-04-10T05:57:54.398Z,425
2018-04-10T05:58:54.482Z,435
2018-04-10T05:59:59.736Z,450
2018-04-10T06:00:54.524Z,465
2018-04-10T06:01:54.557Z,475
2018-04-10T06:02:54.619Z,480
2018-04-10T06:03:54.666Z,485
2018-04-10T06:04:54.677Z,490
2018-04-10T06:05:54.720Z,490
2018-04-10T06:06:54.765Z,495
2018-04-10T06:07:55.910Z,505
2018-04-10T06:08:54.840Z,515
2018-04-10T06:09:56.585Z,520
2018-04-10T06:10:54.920Z,530
2018-04-10T06:11:54.982Z,540
2018-04-10T06:12:55.022Z,550
2018-04-10T06:13:55.947Z,560
2018-04-10T06:14:55.087Z,560
2018-04-10T06:15:55.265Z,560
2018-04-10T06:16:55.368Z,565
2018-04-10T06:17:55.347Z,555
2018-04-10T06:18:55.932Z,550
2018-04-10T06:19:55.702Z,550
2018-04-10T06:20:55.359Z,545
2018-04-10T06:21:55.382Z,550
2018-04-10T06:22:55.425Z,555
2018-04-10T06:23:55.520Z,560
2018-04-10T06:24:55.515Z,570
2018-04-10T06:25:55.560Z,580
2018-04-10T06:26:55.857Z,585
2018-04-10T06:27:55.640Z,605
2018-04-10T06:28:55.688Z,620
2018-04-10T06:29:55.726Z,650
2018-04-10T06:30:55.769Z,665
2018-04-10T06:31:55.815Z,680
2018-04-10T06:32:55.858Z,695
2018-04-10T06:33:55.933Z,700
2018-04-10T06:34:56.306Z,705
2018-04-10T06:35:56.549Z,700
2018-04-10T06:36:56.034Z,710
2018-04-10T06:37:56.104Z,715
2018-04-10T06:38:56.251Z,715
2018-04-10T06:39:56.166Z,720
2018-04-10T06:40:56.476Z,740
2018-04-10T06:41:56.256Z,745
2018-04-10T06:42:56.328Z,745
2018-04-10T06:43:56.347Z,745
2018-04-10T06:44:56.394Z,755
2018-04-10T06:45:56.444Z,765
2018-04-10T06:46:56.522Z,780
2018-04-10T06:47:57.176Z,790
2018-04-10T06:48:56.578Z,800
2018-04-10T06:49:56.736Z,810
2018-04-10T06:50:56.727Z,820
2018-04-10T06:51:57.062Z,825
2018-04-10T06:52:56.794Z,830
2018-04-10T06:53:56.881Z,835
2018-04-10T06:54:57.034Z,830
2018-04-10T06:55:57.090Z,840
2018-04-10T06:56:57.952Z,850
2018-04-10T06:57:57.288Z,850
2018-04-10T06:58:57.110Z,855
2018-04-10T06:59:57.081Z,865
2018-04-10T07:00:57.442Z,870
2018-04-10T07:01:57.707Z,885
2018-04-10T07:02:57.218Z,900
2018-04-10T07:03:57.409Z,905
2018-04-10T07:04:57.494Z,920
2018-04-10T07:05:57.361Z,940
2018-04-10T07:06:57.505Z,945
2018-04-10T07:07:58.016Z,955
2018-04-10T07:08:57.700Z,960
2018-04-10T07:09:57.629Z,965
2018-04-10T07:10:57.592Z,970
2018-04-10T07:11:57.857Z,985
2018-04-10T07:12:57.858Z,1015
2018-04-10T07:13:58.011Z,1035
2018-04-10T07:14:57.816Z,1045
2018-04-10T07:15:58.012Z,1060
2018-04-10T07:16:59.363Z,1075
2018-04-10T07:17:58.011Z,1110
2018-04-10T07:18:57.988Z,1145
2018-04-10T07:19:58.063Z,1175
2018-04-10T07:20:58.178Z,1180
2018-04-10T07:21:58.141Z,1195
2018-04-10T07:22:58.199Z,1200
2018-04-10T07:23:58.213Z,1205
2018-04-10T07:24:58.288Z,1215
2018-04-10T07:25:59.284Z,1230
2018-04-10T07:26:58.621Z,1235
2018-04-10T07:27:58.487Z,1235
2018-04-10T07:28:58.459Z,1250
2018-04-10T07:29:58.506Z,1270
2018-04-10T07:30:58.816Z,1260
2018-04-10T07:31:58.609Z,1245
2018-04-10T07:32:58.654Z,1255
2018-04-10T07:33:58.705Z,1260
2018-04-10T07:35:02.298Z,1295
2018-04-10T07:36:02.849Z,1315
2018-04-10T07:37:01.021Z,1330
2018-04-10T07:38:02.184Z,1335
2018-04-10T07:39:02.549Z,1340
2018-04-10T07:39:59.371Z,1325
2018-04-10T07:40:59.152Z,1320
2018-04-10T07:41:59.105Z,1330
2018-04-10T07:43:02.795Z,1335
2018-04-10T07:43:59.256Z,1345
2018-04-10T07:45:02.593Z,1360
2018-04-10T07:45:59.859Z,1345
2018-04-10T07:46:59.344Z,1340
2018-04-10T07:47:59.395Z,1345
2018-04-10T07:48:59.452Z,1335
2018-04-10T07:50:03.156Z,1315
2018-04-10T07:51:03.983Z,1285
2018-04-10T07:52:00.938Z,1275
2018-04-10T07:52:59.642Z,1275
2018-04-10T07:53:59.693Z,1290
2018-04-10T07:55:03.195Z,1315
2018-04-10T07:55:59.793Z,1330
2018-04-10T07:56:59.844Z,1350
2018-04-10T07:57:59.890Z,1370
2018-04-10T07:59:03.767Z,1400
2018-04-10T08:00:00.249Z,1410
2018-04-10T08:01:00.043Z,1415
2018-04-10T08:02:03.837Z,1400
2018-04-10T08:03:04.356Z,1360
2018-04-10T08:04:00.192Z,1345
2018-04-10T08:05:00.246Z,1345
2018-04-10T08:06:00.307Z,1330
2018-04-10T08:07:00.347Z,1335
2018-04-10T08:08:00.397Z,1320
2018-04-10T08:09:00.703Z,1305
2018-04-10T08:10:00.615Z,1295
2018-04-10T08:11:00.597Z,1285
2018-04-10T08:12:01.287Z,1260
2018-04-10T08:13:01.062Z,1260
2018-04-10T08:14:00.732Z,1250
2018-04-10T08:15:00.775Z,1260
2018-04-10T08:16:01.065Z,1265
2018-04-10T08:17:00.981Z,1305
2018-04-10T08:18:00.921Z,1340
2018-04-10T08:19:00.951Z,1365
2018-04-10T08:20:01.006Z,1400
2018-04-10T08:21:01.093Z,1445
2018-04-10T08:22:01.108Z,1495
2018-04-10T08:23:01.171Z,1515
2018-04-10T08:24:01.235Z,1510
2018-04-10T08:25:01.261Z,1490
2018-04-10T08:26:01.301Z,1440
2018-04-10T08:27:01.362Z,1410
2018-04-10T08:28:01.686Z,1390
2018-04-10T08:29:01.692Z,1385
2018-04-10T08:30:02.080Z,1350
2018-04-10T08:31:01.889Z,1320
2018-04-10T08:32:03.219Z,1315
2018-04-10T08:33:01.941Z,1310
2018-04-10T08:34:01.921Z,1320
2018-04-10T08:35:02.161Z,1320
2018-04-10T08:36:01.829Z,1320
2018-04-10T08:37:02.472Z,1305
2018-04-10T08:38:02.727Z,1300
2018-04-10T08:39:02.383Z,1300
2018-04-10T08:40:03.812Z,1315
2018-04-10T08:41:02.108Z,1325
2018-04-10T08:42:03.201Z,1330
2018-04-10T08:43:02.536Z,1350
2018-04-10T08:44:02.680Z,1385
2018-04-10T08:45:02.639Z,1425
2018-04-10T08:46:02.696Z,1465
2018-04-10T08:47:02.395Z,1495
2018-04-10T08:48:05.522Z,1515
2018-04-10T08:49:02.533Z,1550
2018-04-10T08:50:02.762Z,1595
2018-04-10T08:51:02.926Z,1630
2018-04-10T08:52:02.908Z,1680
2018-04-10T08:53:02.676Z,1705
2018-04-10T08:54:02.738Z,1735
2018-04-10T08:55:05.043Z,1745
2018-04-10T08:56:02.867Z,1755
2018-04-10T08:57:02.978Z,1770
2018-04-10T08:58:03.205Z,1795
2018-04-10T08:59:03.069Z,1800
2018-04-10T09:00:03.311Z,1805
2018-04-10T09:01:03.392Z,1830
2018-04-10T09:02:03.352Z,1840
2018-04-10T09:03:04.164Z,1830
2018-04-10T09:04:03.587Z,1810
2018-04-10T09:05:03.459Z,1805
2018-04-10T09:06:04.184Z,1795
2018-04-10T09:07:03.673Z,1795
2018-04-10T09:08:05.236Z,1780
2018-04-10T09:09:06.027Z,1780
2018-04-10T09:10:04.581Z,1800
2018-04-10T09:11:03.718Z,1825
2018-04-10T09:12:03.877Z,1865
2018-04-10T09:13:06.144Z,1875
2018-04-10T09:14:07.806Z,1875
2018-04-10T09:15:05.360Z,1835
2018-04-10T09:16:04.151Z,1790
2018-04-10T09:17:19.191Z,1735
2018-04-10T09:18:08.699Z,1720
2018-04-10T09:19:04.248Z,1725
2018-04-10T09:20:04.303Z,1745
2018-04-10T09:21:07.184Z,1770
2018-04-10T09:22:07.275Z,1775
2018-04-10T09:23:04.813Z,1760
2018-04-10T09:24:04.323Z,1725
2018-04-10T09:25:04.379Z,1700
2018-04-10T09:26:05.320Z,1680
2018-04-10T09:27:04.738Z,1670
2018-04-10T09:28:04.532Z,1665
2018-04-10T09:29:05.005Z,1680
2018-04-10T09:30:04.788Z,1665
2018-04-10T09:31:04.692Z,1665
2018-04-10T09:32:04.766Z,1665
2018-04-10T09:33:04.792Z,1685
2018-04-10T09:34:04.853Z,1710
2018-04-10T09:35:04.899Z,1735
2018-04-10T09:36:05.252Z,1735
2018-04-10T09:37:05.090Z,1720
2018-04-10T09:38:05.068Z,1705
2018-04-10T09:39:05.118Z,1715
2018-04-10T09:40:05.399Z,1680
2018-04-10T09:41:05.225Z,1660
2018-04-10T09:42:05.273Z,1645
2018-04-10T09:43:05.337Z,1625
2018-04-10T09:44:05.380Z,1630
2018-04-10T09:45:05.733Z,1655
2018-04-10T09:46:05.750Z,1690
2018-04-10T09:47:06.042Z,1710
2018-04-10T09:48:05.875Z,1730
2018-04-10T09:49:05.909Z,1730
2018-04-10T09:50:05.973Z,1720
2018-04-10T09:51:05.760Z,1650
2018-04-10T09:52:05.836Z,1600
2018-04-10T09:53:05.871Z,1580
2018-04-10T09:54:05.982Z,1570
2018-04-10T09:55:06.257Z,1575
2018-04-10T09:56:06.036Z,1605
2018-04-10T09:57:06.077Z,1635
2018-04-10T09:58:06.413Z,1670
2018-04-10T09:59:06.247Z,1665
2018-04-10T10:00:06.251Z,1680
2018-04-10T10:01:06.589Z,1695
2018-04-10T10:02:06.355Z,1695
2018-04-10T10:03:06.398Z,1715
2018-04-10T10:04:06.762Z,1760
2018-04-10T10:05:06.523Z,1785
2018-04-10T10:06:06.824Z,1805
2018-04-10T10:07:06.889Z,1820
2018-04-10T10:08:06.709Z,1830
2018-04-10T10:09:06.770Z,1865
2018-04-10T10:10:06.803Z,1905
2018-04-10T10:11:07.167Z,1900
2018-04-10T10:12:06.901Z,1885
2018-04-10T10:13:06.955Z,1875
2018-04-10T10:14:07.039Z,1870
2018-04-10T10:15:07.104Z,1860
2018-04-10T10:16:07.144Z,1850
2018-04-10T10:17:07.176Z,1845
2018-04-10T10:18:07.215Z,1865
2018-04-10T10:19:07.532Z,1890
2018-04-10T10:20:07.367Z,1925
2018-04-10T10:21:07.485Z,1940
2018-04-10T10:22:07.446Z,1965
2018-04-10T10:23:07.498Z,1980
2018-04-10T10:24:07.607Z,1975
2018-04-10T10:25:07.607Z,1945
2018-04-10T10:26:07.711Z,1905
2018-04-10T10:27:07.706Z,1845
2018-04-10T10:28:07.759Z,1840
2018-04-10T10:29:07.848Z,1815
2018-04-10T10:30:07.908Z,1810
2018-04-10T10:31:07.940Z,1820
2018-04-10T10:32:08.253Z,1805
2018-04-10T10:33:08.036Z,1765
2018-04-10T10:34:08.405Z,1725
2018-04-10T10:35:08.180Z,1700
2018-04-10T10:36:08.248Z,1670
2018-04-10T10:37:08.334Z,1635
2018-04-10T10:38:08.409Z,1630
2018-04-10T10:39:08.694Z,1615
2018-04-10T10:40:08.672Z,1635
2018-04-10T10:41:08.473Z,1660
2018-04-10T10:42:09.153Z,1705
2018-04-10T10:43:08.587Z,1740
2018-04-10T10:44:08.666Z,1760
2018-04-10T10:45:08.856Z,1770
2018-04-10T10:46:08.806Z,1745
2018-04-10T10:47:08.998Z,1725
2018-04-10T10:48:08.899Z,1705
2018-04-10T10:49:08.909Z,1680
2018-04-10T10:50:09.311Z,1690
2018-04-10T10:51:09.012Z,1690
2018-04-10T10:52:09.066Z,1700
2018-04-10T10:53:09.131Z,1725
2018-04-10T10:54:09.470Z,1735
2018-04-10T10:55:09.236Z,1755
2018-04-10T10:56:09.562Z,1780
2018-04-10T10:57:09.344Z,1785
2018-04-10T10:58:09.407Z,1765
2018-04-10T10:59:09.463Z,1770
2018-04-10T11:00:09.572Z,1790
2018-04-10T11:01:09.894Z,1825
2018-04-10T11:02:09.614Z,1870
2018-04-10T11:03:09.664Z,1895
2018-04-10T11:04:09.723Z,1905
2018-04-10T11:05:09.789Z,1890
2018-04-10T11:06:09.829Z,1855
2018-04-10T11:07:09.883Z,1815
2018-04-10T11:08:10.456Z,1775
2018-04-10T11:09:09.987Z,1735
2018-04-10T11:10:10.042Z,1705
2018-04-10T11:11:10.093Z,1710
2018-04-10T11:12:10.209Z,1705
2018-04-10T11:13:10.225Z,1710
2018-04-10T11:14:10.521Z,1715
2018-04-10T11:15:10.314Z,1640
2018-04-10T11:16:10.357Z,885
2018-04-10T11:17:10.409Z,340
2018-04-10T11:18:10.454Z,305
2018-04-10T11:19:10.715Z,290
2018-04-10T11:20:10.867Z,285
2018-04-10T11:21:10.674Z,275
2018-04-10T11:22:10.676Z,265
2018-04-10T11:23:11.002Z,255
2018-04-10T11:24:10.771Z,245
2018-04-10T11:25:10.812Z,245
2018-04-10T11:26:10.904Z,235
2018-04-10T11:27:10.917Z,230
2018-04-10T11:28:10.963Z,230
2018-04-10T11:29:11.040Z,225
2018-04-10T11:30:11.082Z,220
2018-04-10T11:31:11.189Z,215
2018-04-10T11:32:11.164Z,215
2018-04-10T11:33:11.217Z,210
2018-04-10T11:34:11.263Z,210
2018-04-10T11:35:11.326Z,205
2018-04-10T11:36:11.356Z,200
2018-04-10T11:37:11.697Z,200
2018-04-10T11:38:11.506Z,200
2018-04-10T11:39:11.664Z,200
2018-04-10T11:40:11.555Z,200
2018-04-10T11:41:12.392Z,195
2018-04-10T11:42:11.652Z,195
2018-04-10T11:43:12.033Z,190
2018-04-10T11:44:12.001Z,190
2018-04-10T11:45:11.799Z,185
2018-04-10T11:46:11.834Z,185
2018-04-10T11:47:11.879Z,180
2018-04-10T11:48:11.977Z,180
2018-04-10T11:49:12.238Z,175
2018-04-10T11:50:12.014Z,175
2018-04-10T11:51:12.673Z,170
2018-04-10T11:52:12.432Z,170
2018-04-10T11:53:12.183Z,170
2018-04-10T11:54:12.460Z,165
2018-04-10T11:55:12.239Z,165
2018-04-10T11:56:12.637Z,160
2018-04-10T11:57:12.333Z,160
2018-04-10T11:58:12.374Z,160
2018-04-10T11:59:12.423Z,160
2018-04-10T12:00:12.516Z,155
2018-04-10T12:01:12.559Z,155
2018-04-10T12:02:12.556Z,155
2018-04-10T12:03:12.599Z,150
2018-04-10T12:04:12.641Z,150
2018-04-10T12:05:12.693Z,150
2018-04-10T12:06:12.735Z,145
2018-04-10T12:07:13.032Z,145
2018-04-10T12:08:13.108Z,145
2018-04-10T12:09:13.384Z,145
2018-04-10T12:10:12.911Z,145
2018-04-10T12:11:12.981Z,145
2018-04-10T12:12:13.001Z,145
2018-04-10T12:13:13.030Z,145
2018-04-10T12:14:13.082Z,145
2018-04-10T12:15:13.120Z,140
2018-04-10T12:16:13.167Z,140
2018-04-10T12:17:13.471Z,140
2018-04-10T12:18:13.259Z,140
2018-04-10T12:19:13.297Z,140
2018-04-10T12:20:13.335Z,140
2018-04-10T12:21:13.376Z,135
2018-04-10T12:22:13.425Z,135
2018-04-10T12:23:13.470Z,135
2018-04-10T12:24:13.774Z,135
2018-04-10T12:25:13.858Z,135
2018-04-10T12:26:13.623Z,140
2018-04-10T12:27:13.684Z,135
2018-04-10T12:28:13.722Z,135
2018-04-10T12:29:13.739Z,130
2018-04-10T12:30:13.801Z,130
2018-04-10T12:31:14.137Z,130
2018-04-10T12:32:13.864Z,135
2018-04-10T12:33:13.889Z,135
2018-04-10T12:34:13.937Z,135
2018-04-10T12:35:14.243Z,130
2018-04-10T12:36:14.036Z,130
2018-04-10T12:37:14.127Z,130
2018-04-10T12:38:14.416Z,130
2018-04-10T12:39:14.191Z,130
2018-04-10T12:40:15.103Z,125
2018-04-10T12:41:14.285Z,125
2018-04-10T12:42:14.310Z,125
2018-04-10T12:43:14.362Z,125
2018-04-10T12:44:14.759Z,125
2018-04-10T12:45:15.329Z,125
2018-04-10T12:46:14.509Z,120
2018-04-10T12:47:14.578Z,120
2018-04-10T12:48:14.566Z,120
2018-04-10T12:49:14.629Z,120
2018-04-10T12:50:14.646Z,120
2018-04-10T12:51:14.677Z,120
2018-04-10T12:52:14.954Z,120
2018-04-10T12:53:15.417Z,115
2018-04-10T12:54:15.073Z,115
2018-04-10T12:55:15.454Z,115
2018-04-10T12:56:15.698Z,115
2018-04-10T12:57:14.975Z,115
2018-04-10T12:58:15.100Z,115
2018-04-10T12:59:15.459Z,115
2018-04-10T13:00:15.052Z,115
2018-04-10T13:01:15.340Z,120
2018-04-10T13:02:15.481Z,115
2018-04-10T13:03:15.165Z,115
2018-04-10T13:04:15.209Z,110
2018-04-10T13:05:15.283Z,115
2018-04-10T13:06:15.279Z,115
2018-04-10T13:07:15.321Z,110
2018-04-10T13:08:15.364Z,110
2018-04-10T13:09:15.408Z,110
2018-04-10T13:10:15.470Z,110
2018-04-10T13:11:15.485Z,110
2018-04-10T13:12:15.553Z,110
2018-04-10T13:13:15.838Z,110
2018-04-10T13:14:15.616Z,110
2018-04-10T13:15:15.667Z,110
2018-04-10T13:16:15.699Z,110
2018-04-10T13:17:15.904Z,110
2018-04-10T13:18:15.777Z,110
2018-04-10T13:19:15.869Z,110
2018-04-10T13:20:15.864Z,110
2018-04-10T13:21:15.912Z,110
2018-04-10T13:22:15.941Z,110
2018-04-10T13:23:15.983Z,105
2018-04-10T13:24:16.034Z,105
2018-04-10T13:25:16.066Z,105
2018-04-10T13:26:16.402Z,105
2018-04-10T13:27:16.156Z,105
2018-04-10T13:28:16.202Z,105
2018-04-10T13:29:16.237Z,105
2018-04-10T13:30:16.284Z,105
2018-04-10T13:31:16.319Z,105
2018-04-10T13:32:16.365Z,105
2018-04-10T13:33:16.406Z,105
2018-04-10T13:34:16.813Z,105
2018-04-10T13:35:16.483Z,105
2018-04-10T13:36:16.804Z,105
2018-04-10T13:37:16.573Z,105
2018-04-10T13:38:16.610Z,105
2018-04-10T13:39:16.915Z,105
2018-04-10T13:40:16.716Z,105
2018-04-10T13:41:17.520Z,105
2018-04-10T13:42:16.790Z,105
2018-04-10T13:43:16.829Z,105
2018-04-10T13:44:17.128Z,105
2018-04-10T13:45:16.907Z,105
2018-04-10T13:46:16.946Z,105
2018-04-10T13:47:16.992Z,105
2018-04-10T13:48:17.472Z,105
2018-04-10T13:49:17.071Z,105
2018-04-10T13:50:17.112Z,105
2018-04-10T13:51:17.153Z,105
2018-04-10T13:52:17.562Z,105
2018-04-10T13:53:17.775Z,105
2018-04-10T13:54:17.729Z,105
2018-04-10T13:55:17.799Z,105
2018-04-10T13:56:17.624Z,105
2018-04-10T13:57:17.668Z,105
2018-04-10T13:58:17.701Z,105